This is the latest recevied weather packets stored in our database for station/object KE0SWK-13. If no packets are shown the sender has not sent any weather packets the latest 10 day(s).
| Time | Temp. | Humidity | Pressure | Rain* | Wind** | Luminosity | Snow |
|---|---|---|---|---|---|---|---|
| 1778154927 | 5° C | 90% | 1019.7 hPa | 0 mm | - | - | - |
| 1778150720 | 3.89° C | 92% | 1019.5 hPa | 0 mm | - | - | - |
| 1778147734 | 4.44° C | 90% | 1019.7 hPa | 0 mm | - | - | - |
| 1778145325 | 4.44° C | 86% | 1019.6 hPa | 0 mm | - | - | - |
| 1778144759 | 5° C | 86% | 1019.5 hPa | 0 mm | - | - | - |
| 1778138133 | 6.67° C | 82% | 1019.9 hPa | 0 mm | - | - | - |
| 1778132719 | 4.44° C | 91% | 1020.3 hPa | 0 mm | - | - | - |
| 1778128528 | 6.11° C | 84% | 1020.5 hPa | 0 mm | - | - | - |
| 1778127921 | 5.56° C | 83% | 1020.4 hPa | 0 mm | - | - | - |
| 1778124927 | 6.67° C | 80% | 1020.3 hPa | 0 mm | - | - | - |
| 1778123722 | 6.67° C | 78% | 1020.3 hPa | 0 mm | - | - | - |
| 1778123130 | 6.67° C | 77% | 1020.3 hPa | 0 mm | - | - | - |
| 1778113530 | 13.89° C | 38% | 1019 hPa | 0 mm | - | - | - |
| 1778105740 | 16.67° C | 34% | 1018.9 hPa | 0 mm | - | - | - |
| 1778102723 | 16.67° C | 33% | 1019.1 hPa | 0 mm | - | - | - |
| 1778102150 | 17.22° C | 32% | 1019.2 hPa | 0 mm | - | - | - |
| 1778101519 | 16.67° C | 34% | 1019.3 hPa | 0 mm | - | - | - |
| 1778100331 | 17.22° C | 33% | 1019.4 hPa | 0 mm | - | - | - |
| 1778098522 | 17.78° C | 31% | 1019.7 hPa | 0 mm | - | - | - |
| 1778097319 | 18.33° C | 33% | 1019.7 hPa | 0 mm | - | - | - |
| 1778096727 | 17.78° C | 39% | 1019.9 hPa | 0 mm | - | - | - |
| 1778094918 | 17.78° C | 34% | 1020.1 hPa | 0 mm | - | - | - |
| 1778089524 | 17.78° C | 35% | 1020.9 hPa | 0 mm | - | - | - |
| 1778082331 | 15.56° C | 42% | 1020 hPa | 0 mm | - | - | - |
| 1778077521 | 15° C | 61% | 1020.1 hPa | 0 mm | - | - | - |
* Rain latest hour (hover to see other rain measurements)
** Current wind speed in m/s (hover to see current wind gust speed)